Latest Coastal Weather Observations for Cape Ferguson

IDQ60701

Issued at 1:02 am EST Thursday 19 October 2017 (issued every 10 minutes, with the page automatically refreshed every 10 minutes)

About coastal observations | Map of coastal stations | Coastal observations for QLD | Marine services | Other Formats
Station Details ID: 032182 Name: CAPE FERGUSON NTC AWS Lat: -19.28 Lon: 147.06 Height: 0.0 m
Data from the previous 72 hours. | See also: Recent months for locations in Queensland
Date/Time
EST
Temp
°C
Wind Pressure Rain since
9am
mm
Weather Cloud Vis
km
Sea
Height
m
Swell
Dir  Spd
kts
Gust
kts
hPa Trend Height
m
Period
s
Dir
19/01:00am 25.7 E 19 25 1013.6 - - - - - - - - -
19/12:30am 25.4 ESE 21 28 1013.5 - - - - - - - - -
19/12:00am 25.4 E 21 26 1014.2 - - - - - - - - -
 
Date/Time
EST
Temp
°C
Wind Pressure Rain since
9am
mm
Weather Cloud Vis
km
Sea
Height
m
Swell
Dir  Spd
kts
Gust
kts
hPa Trend Height
m
Period
s
Dir
18/11:30pm 25.6 E 19 23 1015.0 - - - - - - - - -
18/11:00pm 25.5 E 18 21 1015.3 - - - - - - - - -
18/10:30pm 25.5 E 19 23 1015.7 - - - - - - - - -
18/10:00pm 25.6 E 16 21 1015.3 - - - - - - - - -
18/09:30pm 25.6 E 18 22 1015.0 - - - - - - - - -
18/09:00pm 25.4 ESE 18 22 1014.5 - - - - - - - - -
18/08:30pm 25.5 ESE 16 19 1013.7 - - - - - - - - -
18/08:00pm 25.3 ESE 19 22 1013.7 - - - - - - - - -
18/07:30pm 25.4 ESE 21 26 1012.7 - - - - - - - - -
18/07:00pm 25.3 E 19 23 1012.9 - - - - - - - - -
18/06:30pm 25.1 E 18 22 1012.9 - - - - - - - - -
18/06:00pm 25.1 ENE 17 21 1013.0 - - - - - - - - -
18/05:30pm 24.7 ENE 17 22 1012.7 - - - - - - - - -
18/05:00pm 25.2 E 20 24 1012.3 - - - - - - - - -
18/04:30pm 25.4 E 17 21 1012.1 - - - - - - - - -
18/04:00pm 25.3 E 16 20 1011.9 - - - - - - - - -
18/03:30pm 25.1 E 16 21 1011.1 - - - - - - - - -
18/03:00pm 24.9 E 21 26 1010.8 - - - - - - - - -
18/02:30pm 24.8 E 19 23 1011.3 - - - - - - - - -
18/02:00pm 24.7 E 20 26 1011.9 - - - - - - - - -
18/01:30pm 24.4 ESE 18 22 1011.9 - - - - - - - - -
18/01:00pm 24.1 E 18 23 1012.2 - - - - - - - - -
18/12:42pm 24.3 E 20 24 1012.4 - - - - - - - - -
18/12:30pm 24.5 ESE 16 24 1011.7 - - - - - - - - -
18/12:00pm 23.6 E 14 19 1013.4 - - - - - - - - -
18/11:30am 23.5 ESE 21 24 1012.7 - - - - - - - - -
18/11:00am 23.8 ESE 13 17 1013.4 - - - - - - - - -
18/10:30am 23.4 SE 11 14 1013.7 - - - - - - - - -
18/10:00am 23.3 SE 13 16 1014.2 - - - - - - - - -
18/09:30am 23.7 SE 13 18 1013.9 - - - - - - - - -
18/09:00am 24.0 ESE 17 20 1013.6 - - - - - - - - -
18/08:30am 23.8 ESE 16 20 1013.8 - - - - - - - - -
18/08:00am 23.9 ESE 17 20 1013.2 - - - - - - - - -
18/07:30am 22.9 SE 10 15 1012.2 - - - - - - - - -
18/07:00am 22.8 SE 10 14 1012.1 - - - - - - - - -
18/06:30am 22.8 SE 12 15 1011.4 - - - - - - - - -
18/06:00am 22.7 SE 14 18 1010.8 - - - - - - - - -
18/05:30am 22.5 SE 16 22 1010.5 - - - - - - - - -
18/05:00am 22.6 SE 23 27 1009.8 - - - - - - - - -
18/04:30am 22.6 SE 23 29 1010.7 - - - - - - - - -
18/04:20am 22.4 SE 20 27 1010.9 - - - - - - - - -
18/04:00am 22.3 SE 13 16 1010.8 - - - - - - - - -
18/03:30am 22.1 SE 12 15 1011.0 - - - - - - - - -
18/03:00am 22.2 SE 11 15 1010.7 - - - - - - - - -
18/02:30am 21.9 SE 15 19 1009.7 - - - - - - - - -
18/02:00am 22.1 SE 15 19 1010.2 - - - - - - - - -
18/01:30am 22.5 SE 15 18 1010.7 - - - - - - - - -
18/01:00am 22.2 SE 15 20 1010.8 - - - - - - - - -
18/12:30am 22.2 SSE 8 10 1010.9 - - - - - - - - -
18/12:00am 22.1 ESE 5 8 1011.7 - - - - - - - - -
 
Date/Time
EST
Temp
°C
Wind Pressure Rain since
9am
mm
Weather Cloud Vis
km
Sea
Height
m
Swell
Dir  Spd
kts
Gust
kts
hPa Trend Height
m
Period
s
Dir
17/11:30pm 21.4 W 1 5 1011.8 - - - - - - - - -
17/11:00pm 21.2 WSW 8 9 1012.6 - - - - - - - - -
17/10:30pm 21.6 WSW 6 8 1012.6 - - - - - - - - -
17/10:00pm 21.3 WNW 10 12 1012.6 - - - - - - - - -
17/09:30pm 21.4 W 8 11 1012.2 - - - - - - - - -
17/09:00pm 21.9 WSW 10 13 1011.9 - - - - - - - - -
17/08:30pm 21.5 WSW 11 15 1011.7 - - - - - - - - -
17/08:00pm 21.8 WSW 7 9 1011.6 - - - - - - - - -
17/07:30pm 22.4 W 9 13 1011.5 - - - - - - - - -
17/07:00pm 22.8 S 8 11 1010.4 - - - - - - - - -
17/06:30pm 23.1 S 9 12 1010.4 - - - - - - - - -
17/06:00pm 22.9 SSE 10 14 1010.4 - - - - - - - - -
17/05:30pm 22.9 S 9 11 1010.1 - - - - - - - - -
17/05:00pm 22.5 S 8 10 1010.1 - - - - - - - - -
17/04:30pm 23.0 S 10 14 1009.9 - - - - - - - - -
17/04:00pm 22.8 S 10 12 1009.8 - - - - - - - - -
17/03:30pm 22.9 SSE 10 13 1009.9 - - - - - - - - -
17/03:00pm 22.5 S 9 11 1009.8 - - - - - - - - -
17/02:30pm 23.2 SSE 10 13 1009.9 - - - - - - - - -
17/02:00pm 23.3 SE 11 13 1010.3 - - - - - - - - -
17/01:30pm 23.0 ESE 12 16 1010.8 - - - - - - - - -
17/01:00pm 23.5 ESE 13 17 1011.3 - - - - - - - - -
17/12:30pm 24.3 SE 9 11 1011.3 - - - - - - - - -
17/12:00pm 24.1 SE 10 13 1011.9 - - - - - - - - -
17/11:30am 23.9 SSE 9 12 1012.2 - - - - - - - - -
17/11:00am 23.6 SE 10 12 1012.4 - - - - - - - - -
17/10:30am 23.5 SSE 8 11 1012.8 - - - - - - - - -
17/10:00am 23.2 S 7 10 1013.2 - - - - - - - - -
17/09:30am 22.9 S 9 12 1012.9 - - - - - - - - -
17/09:00am 22.6 S 7 10 1012.9 - - - - - - - - -
17/08:30am 21.9 WNW 4 8 1012.6 - - - - - - - - -
17/08:00am 21.5 SW 3 4 1012.0 - - - - - - - - -
17/07:30am 21.4 SSW 5 7 1011.8 - - - - - - - - -
17/07:00am 21.2 SW 5 7 1011.1 - - - - - - - - -
17/06:30am 21.3 S 5 6 1010.7 - - - - - - - - -
17/06:00am 21.1 SW 6 9 1010.3 - - - - - - - - -
17/05:30am 21.9 SW 4 6 1010.3 - - - - - - - - -
17/05:00am 21.6 WSW 6 8 1009.9 - - - - - - - - -
17/04:30am 21.1 W 5 7 1009.5 - - - - - - - - -
17/04:00am 21.3 WNW 2 4 1008.9 - - - - - - - - -
17/03:30am 20.7 NW 5 6 1009.0 - - - - - - - - -
17/03:00am 22.4 WSW 2 5 1009.0 - - - - - - - - -
17/02:30am 21.3 NW 4 6 1009.5 - - - - - - - - -
17/02:00am 20.9 WNW 5 6 1009.8 - - - - - - - - -
17/01:30am 21.5 SSW 3 7 1010.5 - - - - - - - - -
17/01:00am 21.4 SSE 6 9 1011.0 - - - - - - - - -
17/12:30am 21.2 S 11 15 1012.0 - - - - - - - - -
17/12:00am 21.7 SSE 13 19 1012.5 - - - - - - - - -
 
Date/Time
EST
Temp
°C
Wind Pressure Rain since
9am
mm
Weather Cloud Vis
km
Sea
Height
m
Swell
Dir  Spd
kts
Gust
kts
hPa Trend Height
m
Period
s
Dir
16/11:30pm 22.8 SSE 11 15 1012.8 - - - - - - - - -
16/11:00pm 22.6 SSE 13 16 1012.8 - - - - - - - - -
16/10:30pm 22.6 S 11 15 1012.5 - - - - - - - - -
16/10:00pm 22.5 S 9 11 1012.7 - - - - - - - - -
16/09:30pm 22.4 S 12 14 1012.5 - - - - - - - - -
16/09:00pm 22.5 SW 2 5 1012.0 - - - - - - - - -
16/08:30pm 23.1 ESE 4 7 1011.7 - - - - - - - - -
16/08:00pm 22.3 WSW 2 4 1012.2 - - - - - - - - -
16/07:30pm 22.6 ESE 4 6 1011.4 - - - - - - - - -
16/07:00pm 22.6 E 8 10 1010.6 - - - - - - - - -
16/06:30pm 22.4 ENE 9 13 1010.9 - - - - - - - - -
16/06:00pm 22.4 ENE 9 13 1010.6 - - - - - - - - -
16/05:30pm 22.5 ENE 6 10 1010.6 - - - - - - - - -
16/05:00pm 22.3 NE 2 7 1010.3 - - - - - - - - -
16/04:30pm 22.2 NE 4 9 1009.9 - - - - - - - - -
16/04:00pm 22.5 ENE 6 12 1009.5 - - - - - - - - -
16/03:30pm 22.5 ENE 6 11 1009.4 - - - - - - - - -
16/03:00pm 22.2 ENE 7 9 1009.6 - - - - - - - - -
16/02:30pm 22.2 ENE 7 9 1010.1 - - - - - - - - -
16/02:00pm 22.4 E 6 8 1010.4 - - - - - - - - -
16/01:30pm 22.7 ESE 7 11 1010.4 - - - - - - - - -
16/01:00pm 23.0 SE 6 9 1010.4 - - - - - - - - -
16/12:30pm 23.1 ESE 3 5 1010.8 - - - - - - - - -
16/12:00pm 23.3 ESE 5 8 1011.3 - - - - - - - - -
16/11:30am 23.6 ESE 6 9 1011.3 - - - - - - - - -
16/11:00am 23.3 ESE 10 13 1011.6 - - - - - - - - -
16/10:30am 23.4 SE 8 11 1011.7 - - - - - - - - -
16/10:00am 23.4 ESE 10 13 1012.1 - - - - - - - - -
16/09:30am 23.2 ESE 10 14 1012.2 - - - - - - - - -
16/09:00am 21.9 E 8 14 1012.2 - - - - - - - - -
16/08:30am 22.1 ESE 12 20 1012.8 - - - - - - - - -
16/08:00am 22.9 SE 18 26 1012.2 - - - - - - - - -
16/07:30am 23.2 ESE 16 21 1011.9 - - - - - - - - -
16/07:00am 24.4 E 16 21 1011.8 - - - - - - - - -
16/06:30am 23.9 ESE 15 19 1011.4 - - - - - - - - -
16/06:00am 23.6 ESE 14 17 1011.0 - - - - - - - - -
16/05:30am 23.8 E 15 18 1010.8 - - - - - - - - -
16/05:00am 23.6 E 17 21 1010.8 - - - - - - - - -
16/04:30am 23.7 ESE 15 19 1010.4 - - - - - - - - -
16/04:00am 23.5 E 15 19 1010.1 - - - - - - - - -
16/03:30am 23.4 E 12 15 1009.5 - - - - - - - - -
16/03:00am 22.6 E 10 13 1009.7 - - - - - - - - -
16/02:30am 22.6 E 10 12 1010.1 - - - - - - - - -
16/02:00am 22.9 E 9 12 1010.5 - - - - - - - - -
16/01:30am 22.6 E 11 14 1010.7 - - - - - - - - -

Other Formats:

Comma delimited format used in spreadsheet applications
http://www.bom.gov.au/fwo/IDQ60701/IDQ60701.94297.axf

JavaScript Object Notation format (JSON) in row-major order
http://www.bom.gov.au/fwo/IDQ60701/IDQ60701.94297.json